Time;durP1;ratioP1;P1;durP2;ratioP2;P2;SDS_P1;SDS_P2;PMS_P1;PMS_P2;Temp;Humidity;BMP_temperature;BMP_pressure;BME280_temperature;BME280_humidity;BME280_pressure;Samples;Min_cycle;Max_cycle;Signal;HPM_P1;HPM_P2
2022/12/05 00:00:27;;;;;;;17.88;9.65;;;;;;;4.77;97.02;99759.03;4932256;28;20058;-88
2022/12/05 00:02:54;;;;;;;18.33;9.07;;;;;;;4.74;96.76;99753.97;4937758;28;20061;-88
2022/12/05 00:05:21;;;;;;;21.58;9.13;;;;;;;4.78;96.63;99763.31;4948689;28;21538;-88
2022/12/05 00:07:48;;;;;;;16.77;8.55;;;;;;;4.76;96.89;99773.13;4929331;28;20127;-89
2022/12/05 00:10:14;;;;;;;19.05;9.52;;;;;;;4.78;96.80;99771.22;4961038;28;20047;-88
2022/12/05 00:12:41;;;;;;;17.95;9.55;;;;;;;4.77;96.60;99778.28;4949080;28;20051;-88
2022/12/05 00:15:11;;;;;;;20.92;10.00;;;;;;;4.80;96.67;99782.50;4978926;28;20101;-88
2022/12/05 00:17:39;;;;;;;21.48;9.52;;;;;;;4.83;96.48;99790.19;4972438;28;20046;-88
2022/12/05 00:20:07;;;;;;;20.85;9.48;;;;;;;4.84;96.42;99791.88;4959046;28;20046;-88
2022/12/05 00:22:36;;;;;;;20.15;10.43;;;;;;;4.84;96.25;99789.25;4965772;28;20116;-84
2022/12/05 00:25:05;;;;;;;19.67;10.70;;;;;;;4.85;96.30;99792.72;4986521;28;20043;-89
2022/12/05 00:27:32;;;;;;;23.00;9.82;;;;;;;4.86;96.30;99790.00;4966937;28;20074;-88
2022/12/05 00:29:59;;;;;;;24.00;10.57;;;;;;;4.86;96.40;99790.00;4913778;28;20048;-88
2022/12/05 00:32:29;;;;;;;20.40;9.52;;;;;;;4.85;96.34;99801.44;4932245;28;20058;-88
2022/12/05 00:34:56;;;;;;;19.85;9.15;;;;;;;4.86;96.22;99800.53;4977757;28;20065;-87
2022/12/05 00:37:23;;;;;;;23.05;10.65;;;;;;;4.86;96.40;99803.16;4980051;28;20050;-88
2022/12/05 00:39:50;;;;;;;24.52;11.50;;;;;;;4.85;96.39;99801.44;4998649;28;20046;-88
2022/12/05 00:42:16;;;;;;;20.65;10.27;;;;;;;4.84;96.26;99802.41;4964808;28;20154;-87
2022/12/05 00:44:43;;;;;;;20.48;10.30;;;;;;;4.86;96.27;99797.03;4948190;28;20050;-88
2022/12/05 00:47:10;;;;;;;23.40;10.73;;;;;;;4.87;96.36;99790.84;4965715;28;20043;-88
2022/12/05 00:49:37;;;;;;;27.17;10.57;;;;;;;4.88;96.27;99793.34;4981268;28;21614;-88
2022/12/05 00:52:03;;;;;;;21.30;10.38;;;;;;;4.88;96.24;99785.47;4964598;28;20043;-88
2022/12/05 00:54:30;;;;;;;21.42;10.90;;;;;;;4.86;96.26;99794.41;4964959;28;20050;-89
2022/12/05 00:56:57;;;;;;;21.35;9.93;;;;;;;4.85;96.56;99801.44;4963177;28;20046;-88
2022/12/05 00:59:24;;;;;;;20.20;10.48;;;;;;;4.85;96.59;99800.59;4980481;28;20054;-88
2022/12/05 01:01:50;;;;;;;29.15;13.23;;;;;;;4.86;96.58;99802.28;4997539;28;20096;-88
2022/12/05 01:04:21;;;;;;;28.50;11.75;;;;;;;4.86;96.45;99804.91;4967945;28;20045;-89
2022/12/05 01:06:49;;;;;;;26.92;12.23;;;;;;;4.86;96.26;99812.81;4944303;28;20402;-89
2022/12/05 01:09:19;;;;;;;26.95;12.98;;;;;;;4.84;96.66;99819.97;4946562;28;20051;-88
2022/12/05 01:11:46;;;;;;;25.92;11.10;;;;;;;4.83;96.56;99807.75;4979567;28;20047;-89
2022/12/05 01:14:15;;;;;;;29.10;13.10;;;;;;;4.83;96.70;99819.13;4981668;28;20089;-89
2022/12/05 01:16:43;;;;;;;28.25;11.40;;;;;;;4.84;96.60;99820.81;4976328;28;20438;-88
2022/12/05 01:19:16;;;;;;;25.63;12.15;;;;;;;4.81;96.75;99818.41;4999388;28;20034;-89
2022/12/05 01:21:43;;;;;;;;;;;;;;;4.73;97.62;99823.28;4923457;28;20039;-88
2022/12/05 01:24:11;;;;;;;25.58;11.63;;;;;;;4.82;97.10;99819.22;4985533;28;19979;-88
2022/12/05 01:26:39;;;;;;;27.48;12.00;;;;;;;4.84;96.74;99831.34;4975796;28;20049;-89
2022/12/05 01:29:06;;;;;;;26.10;10.73;;;;;;;4.85;96.42;99835.66;4977510;28;20046;-89
2022/12/05 01:31:34;;;;;;;23.83;10.27;;;;;;;4.87;96.41;99843.47;4987166;28;20053;-86
2022/12/05 01:34:04;;;;;;;23.83;10.18;;;;;;;4.87;96.16;99833.78;4965947;28;20066;-89
2022/12/05 01:36:31;;;;;;;22.80;11.77;;;;;;;4.85;96.40;99832.19;4952302;28;20505;-88
2022/12/05 01:38:58;;;;;;;28.20;11.73;;;;;;;4.84;96.27;99833.97;4950721;28;20051;-88
2022/12/05 01:41:29;;;;;;;25.10;11.20;;;;;;;4.84;95.98;99839.25;4947280;28;20479;-88
2022/12/05 01:44:01;;;;;;;28.33;11.63;;;;;;;4.84;95.98;99847.13;4941395;28;20410;-88
2022/12/05 01:46:32;;;;;;;23.43;10.23;;;;;;;4.84;96.10;99843.66;4961512;28;20753;-88
2022/12/05 01:49:07;;;;;;;26.27;10.95;;;;;;;4.82;96.15;99848.16;4957587;28;20458;-87
2022/12/05 01:51:35;;;;;;;21.50;10.95;;;;;;;4.85;96.26;99848.81;4966757;28;20399;-87
2022/12/05 01:54:03;;;;;;;24.23;10.98;;;;;;;4.84;96.48;99854.19;4971818;28;20137;-88
2022/12/05 01:56:31;;;;;;;21.52;10.55;;;;;;;4.83;96.32;99853.31;4986877;28;20050;-88
2022/12/05 01:58:59;;;;;;;23.30;11.07;;;;;;;4.84;96.39;99847.13;4966958;28;20073;-87
2022/12/05 02:01:26;;;;;;;24.02;10.52;;;;;;;4.81;97.08;99859.63;4953244;28;20065;-88
2022/12/05 02:03:55;;;;;;;21.27;9.85;;;;;;;4.81;96.91;99865.75;4985737;28;20049;-88
2022/12/05 02:06:23;;;;;;;20.52;10.25;;;;;;;4.82;96.76;99870.06;4953718;28;20050;-88
2022/12/05 02:08:51;;;;;;;22.88;10.60;;;;;;;4.86;96.33;99866.28;5000396;28;20129;-87
2022/12/05 02:11:19;;;;;;;24.23;10.77;;;;;;;4.84;96.61;99848.94;4982500;28;20137;-87
2022/12/05 02:13:58;;;;;;;25.67;10.73;;;;;;;4.82;96.80;99853.44;4969955;28;20050;-88
2022/12/05 02:16:25;;;;;;;24.30;10.35;;;;;;;4.83;96.37;99858.56;4954547;28;20176;-88
2022/12/05 02:19:11;;;;;;;22.45;10.52;;;;;;;4.82;96.42;99869.22;4964953;28;20046;-87
2022/12/05 02:22:13;;;;;;;21.65;11.27;;;;;;;4.77;96.63;99872.13;4964947;28;20042;-87
2022/12/05 02:25:13;;;;;;;21.15;9.20;;;;;;;4.79;96.40;99876.34;4904073;28;20051;-88
2022/12/05 02:28:17;;;;;;;23.05;9.77;;;;;;;4.78;96.43;99876.44;4932587;28;20462;-88
2022/12/05 02:30:53;;;;;;;23.02;10.07;;;;;;;4.77;96.61;99872.97;4957716;28;20046;-88
2022/12/05 02:33:26;;;;;;;19.90;10.45;;;;;;;4.82;96.30;99872.69;4934533;28;20051;-87
2022/12/05 02:35:54;;;;;;;;;;;;;;;4.72;96.19;99882.09;4989257;28;20572;-88
2022/12/05 02:38:37;;;;;;;21.98;9.30;;;;;;;4.76;95.71;99884.44;4998982;28;19929;-88
2022/12/05 02:41:32;;;;;;;21.75;8.73;;;;;;;4.76;95.76;99886.25;4960974;28;20080;-88
2022/12/05 02:44:02;;;;;;;20.65;9.10;;;;;;;4.75;96.15;99888.00;4972834;28;20047;-88
2022/12/05 02:46:31;;;;;;;20.00;9.90;;;;;;;4.81;95.58;99899.94;4964094;28;20047;-88
2022/12/05 02:49:00;;;;;;;20.67;8.85;;;;;;;4.78;96.07;99901.00;4952164;28;20502;-88
2022/12/05 02:51:31;;;;;;;21.20;10.07;;;;;;;4.78;95.51;99903.63;4980783;28;20064;-88
2022/12/05 02:54:00;;;;;;;21.42;9.85;;;;;;;4.78;95.52;99902.75;4953008;28;20050;-87
2022/12/05 02:56:28;;;;;;;17.60;9.20;;;;;;;4.79;95.55;99902.66;4991360;28;20406;-87
2022/12/05 02:58:55;;;;;;;22.60;10.23;;;;;;;4.80;95.57;99921.91;4997054;28;20395;-88
2022/12/05 03:01:24;;;;;;;19.38;9.73;;;;;;;4.78;95.83;99915.91;4968458;28;20042;-88
2022/12/05 03:03:52;;;;;;;21.45;10.13;;;;;;;4.78;95.78;99911.50;4962367;28;20065;-88
2022/12/05 03:06:38;;;;;;;20.00;10.13;;;;;;;4.73;95.80;99899.56;4972103;28;20502;-88
2022/12/05 03:09:17;;;;;;;23.23;11.00;;;;;;;4.70;95.69;99899.75;4952617;28;20061;-88
2022/12/05 03:11:48;;;;;;;20.08;9.68;;;;;;;4.74;95.47;99902.13;4950844;28;20133;-88
2022/12/05 03:14:24;;;;;;;21.58;10.95;;;;;;;4.73;95.54;99900.44;5009094;28;20521;-88
2022/12/05 03:16:53;;;;;;;22.40;10.98;;;;;;;4.79;95.55;99909.72;4961050;28;20042;-87
2022/12/05 03:19:26;;;;;;;18.23;9.52;;;;;;;4.79;95.25;99905.28;4948228;28;20039;-87
2022/12/05 03:22:12;;;;;;;22.73;9.77;;;;;;;4.76;95.08;99913.38;4931576;28;20755;-88
2022/12/05 03:24:40;;;;;;;23.85;10.50;;;;;;;4.82;95.06;99920.03;4933366;28;20448;-87
2022/12/05 03:27:22;;;;;;;15.98;8.82;;;;;;;4.80;94.79;99924.56;4979791;28;20050;-88
2022/12/05 03:30:03;;;;;;;25.73;10.60;;;;;;;4.85;94.92;99932.16;4961919;28;20055;-87
2022/12/05 03:32:54;;;;;;;19.35;9.70;;;;;;;4.82;94.99;99941.09;4917745;28;20035;-88
2022/12/05 03:35:41;;;;;;;22.45;9.95;;;;;;;4.83;94.69;99939.28;4965211;28;20046;-88
2022/12/05 03:38:23;;;;;;;27.70;11.88;;;;;;;4.84;94.58;99947.09;4952272;28;20097;-86
2022/12/05 03:41:16;;;;;;;25.35;10.52;;;;;;;4.77;94.34;99946.63;4993499;28;20055;-88
2022/12/05 03:43:54;;;;;;;25.33;10.90;;;;;;;4.82;94.58;99943.72;4915889;28;20061;-87
2022/12/05 03:46:22;;;;;;;28.83;12.10;;;;;;;4.83;94.67;99945.41;4913359;28;20062;-89
2022/12/05 03:49:01;;;;;;;24.20;10.82;;;;;;;4.84;94.30;99948.91;4957274;28;20051;-88
2022/12/05 03:51:34;;;;;;;26.55;11.20;;;;;;;4.82;94.50;99946.34;4936086;28;20120;-88
2022/12/05 03:54:16;;;;;;;25.33;11.38;;;;;;;4.78;94.30;99947.47;4957199;28;20473;-88
2022/12/05 03:57:22;;;;;;;26.05;10.38;;;;;;;4.74;94.64;99946.84;4962036;28;20046;-87
2022/12/05 03:59:50;;;;;;;25.00;10.52;;;;;;;4.77;94.67;99943.16;4912290;28;20073;-88
2022/12/05 04:02:22;;;;;;;29.30;11.93;;;;;;;4.78;94.36;99944.84;4965524;28;20582;-88
2022/12/05 04:04:58;;;;;;;25.60;12.57;;;;;;;4.74;94.63;99946.84;4974989;28;20046;-88
2022/12/05 04:07:26;;;;;;;30.70;13.38;;;;;;;4.79;94.45;99949.19;4947907;28;20043;-88
2022/12/05 04:09:58;;;;;;;35.72;15.25;;;;;;;4.75;94.93;99959.03;4933432;28;20524;-88
2022/12/05 04:12:28;;;;;;;33.65;13.65;;;;;;;4.78;95.09;99973.78;4959953;28;20561;-88
2022/12/05 04:15:01;;;;;;;30.60;12.00;;;;;;;4.83;94.89;99963.81;4947915;28;20065;-88
2022/12/05 04:17:47;;;;;;;26.45;12.18;;;;;;;4.75;94.58;99953.78;4929394;28;20039;-89
2022/12/05 04:23:06;;;;;;;33.25;14.07;;;;;;;4.74;95.07;99940.72;4950718;28;20046;-89
2022/12/05 04:25:43;;;;;;;26.67;11.77;;;;;;;4.74;94.73;99938.94;4948209;28;20103;-88
2022/12/05 04:28:26;;;;;;;28.02;11.27;;;;;;;4.72;95.11;99942.59;4973996;28;20505;-89
2022/12/05 04:31:15;;;;;;;25.58;11.85;;;;;;;4.69;95.21;99943.66;4963435;28;20049;-89
2022/12/05 04:33:45;;;;;;;26.58;10.90;;;;;;;4.75;95.13;99940.63;4943315;28;20487;-89
2022/12/05 04:36:20;;;;;;;20.02;9.40;;;;;;;4.72;95.31;99948.72;4926149;28;20686;-89
2022/12/05 04:38:54;;;;;;;22.75;10.43;;;;;;;4.72;95.53;99942.59;4962697;28;20435;-89
2022/12/05 04:41:24;;;;;;;24.80;10.38;;;;;;;4.74;94.85;99949.47;4940292;28;20081;-88
2022/12/05 04:43:53;;;;;;;25.88;10.38;;;;;;;4.74;95.18;99956.50;4961858;28;20039;-88
2022/12/05 04:46:20;;;;;;;29.20;10.75;;;;;;;4.71;95.68;99962.81;4957332;28;20070;-89
2022/12/05 04:48:53;;;;;;;21.55;11.10;;;;;;;4.70;95.73;99955.00;4959298;28;20059;-88
2022/12/05 04:51:23;;;;;;;28.35;11.98;;;;;;;4.68;96.10;99960.38;4940867;28;20047;-89
2022/12/05 04:53:55;;;;;;;26.42;12.20;;;;;;;4.69;96.19;99966.47;4982669;28;20069;-88
2022/12/05 04:56:25;;;;;;;25.90;12.45;;;;;;;4.69;96.07;99972.56;5011369;28;20532;-89
2022/12/05 04:58:53;;;;;;;25.98;12.02;;;;;;;4.70;95.74;99962.91;4976481;28;20046;-88
2022/12/05 05:01:43;;;;;;;22.10;11.45;;;;;;;4.67;96.32;99963.94;4961529;28;20050;-85
2022/12/05 05:04:10;;;;;;;27.17;13.20;;;;;;;4.74;95.96;99967.88;4961816;28;20066;-88
2022/12/05 05:06:38;;;;;;;22.05;11.77;;;;;;;4.75;96.17;99969.56;4982844;28;20049;-88
2022/12/05 05:09:04;;;;;;;23.85;10.43;;;;;;;4.73;96.11;99960.06;4963398;28;20160;-88
2022/12/05 05:11:33;;;;;;;23.08;10.95;;;;;;;4.73;96.07;99960.94;4949895;28;20093;-89
2022/12/05 05:14:00;;;;;;;22.40;10.55;;;;;;;4.71;96.01;99965.44;4943296;28;20051;-93
2022/12/05 05:16:32;;;;;;;19.90;10.45;;;;;;;4.74;95.99;99973.13;4957176;28;20059;-92
2022/12/05 05:19:00;;;;;;;22.75;10.30;;;;;;;4.74;96.09;99969.66;4949133;28;20050;-92
2022/12/05 05:21:29;;;;;;;26.08;10.48;;;;;;;4.70;96.34;99970.78;4949772;28;20050;-92
2022/12/05 05:23:56;;;;;;;23.75;10.60;;;;;;;4.72;96.22;99972.38;4991794;28;20051;-94
2022/12/05 05:26:24;;;;;;;22.15;10.50;;;;;;;4.71;96.43;99970.72;4980902;28;20066;-93
2022/12/05 05:28:51;;;;;;;24.80;11.63;;;;;;;4.70;96.57;99976.03;4979001;28;20050;-92
2022/12/05 05:31:19;;;;;;;28.05;11.55;;;;;;;4.69;96.31;99972.56;4970773;28;20101;-89
2022/12/05 05:33:51;;;;;;;22.10;9.55;;;;;;;4.67;96.12;99977.09;4949918;28;20046;-89
2022/12/05 05:36:19;;;;;;;24.42;10.68;;;;;;;4.71;95.93;99972.50;4983564;28;20046;-89
2022/12/05 05:38:49;;;;;;;27.00;11.57;;;;;;;4.69;95.81;99975.22;4997290;28;20043;-89
2022/12/05 05:41:18;;;;;;;27.38;12.23;;;;;;;4.68;96.17;99967.41;4945030;28;20098;-89
2022/12/05 05:43:46;;;;;;;20.70;10.50;;;;;;;4.69;96.11;99977.00;4966878;28;20051;-87
2022/12/05 05:46:14;;;;;;;24.52;11.02;;;;;;;4.73;95.91;99978.47;4999565;28;20512;-89
2022/12/05 05:48:41;;;;;;;20.95;10.57;;;;;;;4.71;96.38;99975.97;5007545;28;20042;-88
2022/12/05 05:51:09;;;;;;;21.33;11.18;;;;;;;4.73;96.29;99992.50;4964641;28;20058;-89
2022/12/05 05:53:37;;;;;;;23.98;11.13;;;;;;;4.72;96.31;99985.53;4973266;28;20062;-88
2022/12/05 05:56:06;;;;;;;29.67;11.50;;;;;;;4.76;95.72;99980.94;4961752;28;20055;-89
2022/12/05 05:58:34;;;;;;;26.85;11.50;;;;;;;4.75;95.98;99987.13;4971130;28;20093;-89
2022/12/05 06:01:07;;;;;;;28.85;12.52;;;;;;;4.68;95.60;99997.22;4939621;28;20066;-89
2022/12/05 06:03:33;;;;;;;27.15;11.07;;;;;;;4.70;96.26;100004.97;4967987;28;20097;-89
2022/12/05 06:06:03;;;;;;;28.00;11.27;;;;;;;4.74;95.81;100004.69;4967092;28;20050;-89
2022/12/05 06:08:35;;;;;;;33.35;12.43;;;;;;;4.75;95.66;100010.81;4931755;28;20047;-88
2022/12/05 06:11:23;;;;;;;27.23;11.43;;;;;;;4.72;95.65;100011.00;4964266;28;20043;-89
2022/12/05 06:13:56;;;;;;;30.30;11.82;;;;;;;4.73;96.03;100015.31;4949275;28;20514;-88
2022/12/05 06:16:23;;;;;;;24.50;10.55;;;;;;;4.77;95.89;100020.28;4960853;28;20057;-89
2022/12/05 06:18:50;;;;;;;23.10;11.10;;;;;;;4.77;95.90;100020.28;4998665;28;20062;-89
2022/12/05 06:21:17;;;;;;;28.23;11.70;;;;;;;4.78;95.87;100024.63;4968854;28;20042;-89
2022/12/05 06:23:44;;;;;;;23.65;10.93;;;;;;;4.77;96.10;100022.94;4953038;28;20510;-89
2022/12/05 06:26:14;;;;;;;28.45;11.13;;;;;;;4.77;95.53;100025.56;4954250;28;20046;-89
2022/12/05 06:28:41;;;;;;;27.55;11.55;;;;;;;4.78;95.77;100026.41;4996929;28;20053;-86
2022/12/05 06:31:10;;;;;;;23.02;10.38;;;;;;;4.78;95.90;100029.91;4940466;28;20043;-88
2022/12/05 06:33:37;;;;;;;26.90;11.05;;;;;;;4.78;95.82;100022.00;4986071;28;20050;-89
2022/12/05 06:36:15;;;;;;;27.88;11.82;;;;;;;4.79;95.94;100030.72;4946529;28;20517;-89
2022/12/05 06:38:42;;;;;;;26.75;11.55;;;;;;;4.82;95.72;100038.44;4956869;28;20054;-89
2022/12/05 06:41:17;;;;;;;31.23;12.60;;;;;;;4.82;95.50;100042.84;4985572;28;20046;-89
2022/12/05 06:43:44;;;;;;;27.60;10.98;;;;;;;4.82;95.49;100043.69;4952500;28;20034;-88
2022/12/05 06:46:12;;;;;;;26.38;11.43;;;;;;;4.84;95.58;100047.09;4970658;28;20078;-89
2022/12/05 06:48:39;;;;;;;26.92;11.77;;;;;;;4.83;95.67;100052.44;4966832;28;20043;-90
2022/12/05 06:51:09;;;;;;;25.00;10.98;;;;;;;4.84;95.55;100054.13;4952867;28;20066;-90
2022/12/05 06:53:36;;;;;;;28.75;11.60;;;;;;;4.79;95.77;100044.72;4980418;28;20395;-89
2022/12/05 06:56:07;;;;;;;26.00;11.10;;;;;;;4.82;95.71;100042.84;4957882;28;20057;-90
2022/12/05 06:58:33;;;;;;;32.63;11.57;;;;;;;4.81;95.60;100049.03;4985477;28;20054;-89
2022/12/05 07:03:49;;;;;;;30.52;11.60;;;;;;;4.78;95.91;100050.94;4962593;28;20386;-89
2022/12/05 07:06:16;;;;;;;32.65;13.35;;;;;;;4.82;95.67;100062.13;4932869;28;20050;-89
2022/12/05 07:08:43;;;;;;;30.23;12.35;;;;;;;4.82;95.72;100062.13;4919502;28;20056;-89
2022/12/05 07:11:10;;;;;;;27.08;12.27;;;;;;;4.79;96.15;100057.88;4965895;28;20057;-89
2022/12/05 07:13:37;;;;;;;29.23;11.25;;;;;;;4.79;95.72;100057.03;4934883;28;20074;-89
2022/12/05 07:16:05;;;;;;;28.58;12.63;;;;;;;4.78;96.22;100058.84;4940928;28;20042;-90
2022/12/05 07:18:34;;;;;;;31.98;12.52;;;;;;;4.75;96.73;100064.25;4952780;28;20481;-89
2022/12/05 07:21:03;;;;;;;33.30;14.18;;;;;;;4.78;96.24;100063.22;4958869;28;20053;-89
2022/12/05 07:23:39;;;;;;;28.23;12.48;;;;;;;4.78;96.50;100073.75;4952724;28;20054;-89
2022/12/05 07:26:08;;;;;;;30.35;11.73;;;;;;;4.83;96.02;100078.75;4933997;28;20130;-89
2022/12/05 07:28:35;;;;;;;28.13;12.82;;;;;;;4.85;95.84;100074.25;4938360;28;20043;-89
2022/12/05 07:31:07;;;;;;;29.77;13.25;;;;;;;4.84;95.70;100077.81;4971372;28;20093;-89
2022/12/05 07:33:34;;;;;;;33.70;13.25;;;;;;;4.85;95.66;100080.34;4959060;28;20038;-89
2022/12/05 07:36:06;;;;;;;31.85;13.30;;;;;;;4.86;95.78;100086.44;4962859;28;20042;-90
2022/12/05 07:38:33;;;;;;;29.80;13.50;;;;;;;4.86;95.95;100084.69;4961451;28;20488;-90
2022/12/05 07:41:05;;;;;;;33.50;13.23;;;;;;;4.86;95.71;100091.69;4971438;28;20121;-90
2022/12/05 07:43:38;;;;;;;31.63;14.35;;;;;;;4.88;95.71;100095.94;4948600;28;20058;-90
2022/12/05 07:46:07;;;;;;;32.28;14.25;;;;;;;4.90;95.33;100104.59;4939919;28;20125;-89
2022/12/05 07:48:34;;;;;;;29.60;13.45;;;;;;;4.91;95.24;100100.16;4964690;28;20046;-89
2022/12/05 07:51:02;;;;;;;32.28;15.48;;;;;;;4.92;95.54;100101.88;4954489;28;20050;-90
2022/12/05 07:53:29;;;;;;;26.00;12.95;;;;;;;4.92;95.44;100101.88;4959303;28;20053;-90
2022/12/05 07:56:05;;;;;;;29.98;13.75;;;;;;;4.86;95.14;100100.47;4966277;28;20549;-89
2022/12/05 07:58:33;;;;;;;31.30;13.82;;;;;;;4.90;95.44;100094.06;4951205;28;23479;-89
2022/12/05 08:01:14;;;;;;;30.15;12.80;;;;;;;4.83;95.27;100095.38;4963851;28;20078;-90
2022/12/05 08:03:42;;;;;;;26.90;13.02;;;;;;;4.91;95.21;100108.94;4922399;28;20054;-90
2022/12/05 08:06:14;;;;;;;29.65;13.43;;;;;;;4.91;95.10;100111.56;4954779;28;20054;-90
2022/12/05 08:08:41;;;;;;;34.88;13.88;;;;;;;4.91;95.22;100111.56;4933025;28;20383;-90
2022/12/05 08:11:11;;;;;;;30.83;13.65;;;;;;;4.91;94.94;100115.94;4934362;28;20522;-89
2022/12/05 08:13:39;;;;;;;30.90;12.88;;;;;;;4.91;95.17;100113.31;4924771;28;20089;-90
2022/12/05 08:16:09;;;;;;;29.95;13.10;;;;;;;4.90;95.18;100114.28;4915728;28;20086;-89
2022/12/05 08:18:36;;;;;;;28.52;13.40;;;;;;;4.88;95.19;100111.72;4935683;28;20062;-90
2022/12/05 08:21:12;;;;;;;28.20;12.57;;;;;;;4.85;94.97;100111.91;4976576;28;20042;-89
2022/12/05 08:23:39;;;;;;;29.63;13.57;;;;;;;4.88;95.26;100119.63;4979336;28;20487;-89
2022/12/05 08:26:11;;;;;;;27.25;12.73;;;;;;;4.88;95.18;100119.63;4979813;28;20046;-91
2022/12/05 08:28:38;;;;;;;25.70;11.43;;;;;;;4.86;95.61;100118.00;4965712;28;20051;-89
2022/12/05 08:31:33;;;;;;;26.58;12.60;;;;;;;4.85;95.32;100122.44;4921884;28;20143;-89
2022/12/05 08:34:00;;;;;;;23.38;11.63;;;;;;;4.87;94.95;100115.31;4916090;28;20042;-89
2022/12/05 08:36:29;;;;;;;27.65;12.45;;;;;;;4.90;95.05;100127.44;4938301;28;20046;-89
2022/12/05 08:38:57;;;;;;;29.27;12.55;;;;;;;4.93;94.90;100129.88;4934274;28;20483;-89
2022/12/05 08:41:27;;;;;;;31.48;13.27;;;;;;;4.93;95.15;100132.50;4965929;28;20112;-88
2022/12/05 08:44:01;;;;;;;28.92;13.27;;;;;;;4.90;94.68;100143.22;4962015;28;20038;-89
2022/12/05 08:46:29;;;;;;;29.33;11.98;;;;;;;4.92;95.12;100139.56;4929289;28;20164;-89
2022/12/05 08:48:57;;;;;;;31.38;13.20;;;;;;;4.93;95.33;100143.03;4930626;28;20086;-89
2022/12/05 08:51:24;;;;;;;26.90;12.50;;;;;;;4.94;95.01;100148.22;4932576;28;20057;-88
2022/12/05 08:53:50;;;;;;;31.02;13.80;;;;;;;4.92;95.35;100143.97;4946555;28;20063;-90
2022/12/05 08:56:17;;;;;;;27.27;12.13;;;;;;;4.94;95.23;100148.22;4947605;28;20518;-89
2022/12/05 08:58:50;;;;;;;33.67;13.95;;;;;;;4.95;95.08;100149.03;4911915;28;20051;-90
2022/12/05 09:01:19;;;;;;;26.23;11.88;;;;;;;4.93;95.06;100145.66;4939304;28;20133;-90
2022/12/05 09:03:46;;;;;;;25.42;12.57;;;;;;;4.95;95.26;100154.31;4978689;28;20074;-89
2022/12/05 09:06:19;;;;;;;30.02;13.85;;;;;;;4.94;95.00;100152.63;4943355;28;20043;-90
2022/12/05 09:08:47;;;;;;;33.88;13.88;;;;;;;4.95;95.34;100160.41;4959083;28;20070;-90
2022/12/05 09:11:19;;;;;;;29.83;13.10;;;;;;;4.95;94.99;100162.19;4916270;28;20053;-90
2022/12/05 09:13:46;;;;;;;31.73;13.48;;;;;;;4.95;95.23;100157.78;4963185;28;20051;-90
2022/12/05 09:16:16;;;;;;;30.75;13.38;;;;;;;4.97;95.08;100165.59;4944467;28;20518;-88
2022/12/05 09:18:43;;;;;;;26.90;12.82;;;;;;;4.98;95.00;100159.38;4982469;28;20072;-89
2022/12/05 09:21:16;;;;;;;35.67;13.77;;;;;;;4.96;94.83;100159.50;4936947;28;20056;-89
2022/12/05 09:23:43;;;;;;;;;;;;;;;4.88;94.83;100172.25;4968199;28;20079;-89
2022/12/05 09:26:13;;;;;;;26.30;11.88;;;;;;;4.93;95.10;100172.81;4972783;28;19921;-89
2022/12/05 09:28:41;;;;;;;31.10;13.57;;;;;;;4.96;94.99;100175.28;4979089;28;20046;-90
2022/12/05 09:31:11;;;;;;;28.25;13.15;;;;;;;4.98;94.96;100176.00;4979603;28;20042;-91
2022/12/05 09:33:38;;;;;;;30.85;14.50;;;;;;;5.02;95.09;100183.75;4942152;28;20042;-91
2022/12/05 09:36:12;;;;;;;30.98;14.88;;;;;;;4.98;94.79;100189.16;4983605;28;20089;-89
2022/12/05 09:38:39;;;;;;;33.70;14.25;;;;;;;5.00;94.83;100187.31;4969388;28;20049;-90
2022/12/05 09:41:05;;;;;;;31.70;14.35;;;;;;;5.02;94.95;100192.47;4984659;28;20149;-88
2022/12/05 09:43:44;;;;;;;34.22;15.43;;;;;;;5.03;95.04;100194.16;4974708;28;20046;-88
2022/12/05 09:46:23;;;;;;;32.05;14.30;;;;;;;5.04;95.33;100197.63;4984125;28;20583;-89
2022/12/05 09:48:50;;;;;;;34.22;14.30;;;;;;;5.06;95.43;100193.97;4988219;28;20050;-89
2022/12/05 09:51:17;;;;;;;31.33;14.55;;;;;;;5.06;95.63;100193.13;4981533;28;20058;-89
2022/12/05 09:53:44;;;;;;;27.02;13.07;;;;;;;5.08;95.47;100196.53;4952856;28;20046;-88
2022/12/05 09:56:19;;;;;;;32.80;13.70;;;;;;;5.07;95.71;100193.06;4960238;28;20043;-88
2022/12/05 09:58:52;;;;;;;31.08;13.70;;;;;;;5.10;95.64;100186.75;4963774;28;20070;-89
2022/12/05 10:01:41;;;;;;;34.30;13.97;;;;;;;5.06;95.44;100201.03;4930080;28;20050;-87
2022/12/05 10:04:26;;;;;;;27.88;12.68;;;;;;;5.07;95.81;100194.84;4963381;28;20637;-87
2022/12/05 10:07:06;;;;;;;28.55;13.65;;;;;;;5.11;95.73;100194.56;4983048;28;20043;-88
2022/12/05 10:09:41;;;;;;;33.60;14.00;;;;;;;5.11;95.71;100191.91;4996578;28;21293;-88
2022/12/05 10:12:26;;;;;;;32.63;13.45;;;;;;;5.10;95.90;100190.22;4987199;28;20485;-89
2022/12/05 10:15:11;;;;;;;31.77;15.02;;;;;;;5.10;96.03;100189.41;4952649;28;20038;-88
2022/12/05 10:17:41;;;;;;;29.63;12.88;;;;;;;5.15;95.99;100182.06;4982253;28;20467;-89
2022/12/05 10:20:14;;;;;;;31.60;13.88;;;;;;;5.16;95.69;100181.13;4969677;28;20045;-88
2022/12/05 10:22:50;;;;;;;31.00;13.18;;;;;;;5.16;95.79;100191.66;4984618;28;20481;-88
2022/12/05 10:25:20;;;;;;;27.05;12.57;;;;;;;5.18;95.82;100180.09;4925640;28;20138;-89
2022/12/05 10:27:52;;;;;;;30.02;13.43;;;;;;;5.19;96.02;100180.91;4963105;28;20061;-88
2022/12/05 10:30:21;;;;;;;33.90;13.88;;;;;;;5.23;96.11;100172.75;4964122;28;20050;-89
2022/12/05 10:32:55;;;;;;;32.15;13.88;;;;;;;5.23;95.85;100177.19;4935086;28;20050;-88
2022/12/05 10:35:31;;;;;;;28.80;13.52;;;;;;;5.25;95.96;100172.66;4936883;28;20058;-89
2022/12/05 10:38:23;;;;;;;29.80;14.43;;;;;;;5.25;96.27;100183.19;4969399;28;20086;-89
2022/12/05 10:40:52;;;;;;;29.17;12.38;;;;;;;5.32;96.27;100181.91;4932298;28;20888;-89
2022/12/05 10:43:24;;;;;;;31.02;13.35;;;;;;;5.33;96.27;100183.56;4962333;28;20081;-89
2022/12/05 10:45:51;;;;;;;33.80;13.38;;;;;;;5.35;96.57;100192.22;4949692;28;20050;-89
2022/12/05 10:48:19;;;;;;;27.80;12.95;;;;;;;5.37;96.58;100182.47;4937932;28;20050;-89
2022/12/05 10:50:48;;;;;;;29.25;13.30;;;;;;;5.37;96.11;100187.72;4935120;28;20038;-89
2022/12/05 10:53:18;;;;;;;32.67;13.75;;;;;;;5.38;96.23;100186.78;4998346;28;20505;-88
2022/12/05 10:55:47;;;;;;;30.77;13.40;;;;;;;5.37;96.31;100184.25;4967554;28;20056;-90
2022/12/05 10:58:34;;;;;;;28.65;12.38;;;;;;;5.36;96.27;100188.66;4938881;28;20047;-90
2022/12/05 11:01:08;;;;;;;29.48;13.00;;;;;;;5.35;96.32;100188.75;4985748;28;20050;-89
2022/12/05 11:03:37;;;;;;;29.02;13.23;;;;;;;5.35;96.58;100192.22;4969010;28;20042;-88
2022/12/05 11:06:22;;;;;;;33.30;14.30;;;;;;;5.30;96.75;100182.94;4977963;28;20047;-91
2022/12/05 11:08:54;;;;;;;27.90;12.13;;;;;;;5.32;96.77;100184.53;4964673;28;20074;-89
2022/12/05 11:11:32;;;;;;;32.03;13.95;;;;;;;5.33;96.60;100180.09;4964037;28;20054;-89
2022/12/05 11:14:04;;;;;;;32.15;14.68;;;;;;;5.33;96.63;100188.00;4984166;28;20057;-89
2022/12/05 11:16:36;;;;;;;33.00;13.90;;;;;;;5.29;96.91;100190.00;4966071;28;20375;-90
2022/12/05 11:19:30;;;;;;;31.42;14.15;;;;;;;5.25;97.21;100185.00;4945935;28;20458;-89
2022/12/05 11:21:57;;;;;;;29.48;14.57;;;;;;;5.31;97.17;100180.19;4953956;28;20502;-88
2022/12/05 11:24:29;;;;;;;34.25;15.35;;;;;;;5.30;96.92;100175.03;4948097;28;20138;-87
2022/12/05 11:26:58;;;;;;;32.37;13.07;;;;;;;5.31;96.93;100166.19;4947970;28;20443;-88
2022/12/05 11:29:29;;;;;;;33.97;14.35;;;;;;;5.31;96.92;100174.06;4952336;28;20505;-88
2022/12/05 11:31:56;;;;;;;31.38;13.93;;;;;;;5.33;97.00;100172.19;4928080;28;20126;-88
2022/12/05 11:34:27;;;;;;;35.08;14.77;;;;;;;5.33;97.33;100172.19;4935495;28;21076;-88
2022/12/05 11:36:57;;;;;;;33.65;13.95;;;;;;;5.35;97.23;100176.44;4941657;28;20046;-88
2022/12/05 11:39:24;;;;;;;31.98;13.05;;;;;;;5.38;97.35;100172.75;4995861;28;20053;-88
2022/12/05 11:42:15;;;;;;;28.27;13.52;;;;;;;5.37;97.39;100171.09;4983528;28;20104;-88
2022/12/05 11:44:42;;;;;;;26.95;13.85;;;;;;;5.46;97.58;100172.28;4931289;28;20085;-87
2022/12/05 11:47:21;;;;;;;27.50;14.02;;;;;;;5.52;97.56;100174.53;4973834;28;20117;-88